Terminal Aerodrome Forecast
Issued by NWS

Home | Current Version | Previous Version | Text Only | Print | Product List | Glossary On
Versions: 1 2 3 4 5 6 7 8 9 10 11 12 13
628
FTUS46 KMTR 280847 AAA
TAFOAK
TAF AMD
KOAK 280847Z 2809/2912 30005KT P6SM FEW005
     FM281200 VRB03KT P6SM SCT005
     FM281630 28006KT P6SM FEW008
     FM282100 30013KT P6SM FEW015
     FM290300 29010KT P6SM FEW010=

USA.gov is the U.S. government's official web portal to all federal, state and local government web resources and services.